Decoded Metar for KOTG (WORTHINGTON in MN, USA) (IATA:OTG) | Meteo·Mobile Aviation Weather
aviador You're here:

KOTG Decoded Metar

WORTHINGTON in MN, USA
Report Time2020-02-22 22:56:00
UTC Time2020-02-22 23:08:15
Flight Rules vfr VFR
Wind220° at 12 kt
W.Decomp.*RWY 18: 9.5 kt HW 7.4 kt RCW
RWY 29: 3.7 kt HW 11.4 kt LCW
Visibility9999 m
Phenomena:N/A
Clouds:N/A
Expected CloudBase > 1,200 ft AGL from Temp-Dew spread
CeilingNone
Temp04°C (ISA -8)
Dew Point01°C (81% RH)
AAT-2.1°C
QNH1011 hPa
Density Alt787 ft
Elevation1,575 ft
Report Wrong Elevation
Raw Report
KOTG 222256Z AUTO 22012KT 10SM CLR 04/01 A2985 RMK AO2 SLP128
T00390006=

Extra information for KOTG:More info

Metar Taf Metar & Taf Last 4 Metars F.Rules Stats Wind Profile Meteogram Temp Stats Airport Information Weather charts Add Link Nearby VenuesMetar ALERT Operation Metar Decoded Social comments

AIRNAV info for KOTG